sensor_id;sensor_type;location;lat;lon;timestamp;temperature;humidity
26224;DHT22;14820;48.682;8.890;2022-09-03T00:02:19;15.30;99.90
26224;DHT22;14820;48.682;8.890;2022-09-03T00:10:03;15.40;99.90
26224;DHT22;14820;48.682;8.890;2022-09-03T00:12:32;15.40;99.90
26224;DHT22;14820;48.682;8.890;2022-09-03T00:15:13;15.40;99.90
26224;DHT22;14820;48.682;8.890;2022-09-03T00:17:48;15.40;99.90
26224;DHT22;14820;48.682;8.890;2022-09-03T00:20:23;15.40;99.90
26224;DHT22;14820;48.682;8.890;2022-09-03T00:22:56;15.40;99.90
26224;DHT22;14820;48.682;8.890;2022-09-03T00:28:50;15.40;99.90
26224;DHT22;14820;48.682;8.890;2022-09-03T00:31:30;15.40;99.90
26224;DHT22;14820;48.682;8.890;2022-09-03T00:34:01;15.30;99.90
26224;DHT22;14820;48.682;8.890;2022-09-03T00:36:41;15.40;99.90
26224;DHT22;14820;48.682;8.890;2022-09-03T00:39:16;15.40;99.90
26224;DHT22;14820;48.682;8.890;2022-09-03T00:42:01;15.30;99.90
26224;DHT22;14820;48.682;8.890;2022-09-03T00:44:52;15.40;99.90
26224;DHT22;14820;48.682;8.890;2022-09-03T00:47:32;15.40;99.90
26224;DHT22;14820;48.682;8.890;2022-09-03T00:50:04;15.30;99.90
26224;DHT22;14820;48.682;8.890;2022-09-03T00:56:02;15.30;99.90
26224;DHT22;14820;48.682;8.890;2022-09-03T01:00:54;15.30;99.90
26224;DHT22;14820;48.682;8.890;2022-09-03T01:03:55;15.30;99.90
26224;DHT22;14820;48.682;8.890;2022-09-03T01:06:31;15.30;99.90
26224;DHT22;14820;48.682;8.890;2022-09-03T01:09:28;15.40;99.90
26224;DHT22;14820;48.682;8.890;2022-09-03T01:12:38;15.30;99.90
26224;DHT22;14820;48.682;8.890;2022-09-03T01:15:25;15.30;99.90
26224;DHT22;14820;48.682;8.890;2022-09-03T01:23:52;15.30;99.90
26224;DHT22;14820;48.682;8.890;2022-09-03T01:26:30;15.40;99.90
26224;DHT22;14820;48.682;8.890;2022-09-03T01:29:27;15.40;99.90
26224;DHT22;14820;48.682;8.890;2022-09-03T01:43:32;15.30;99.90
26224;DHT22;14820;48.682;8.890;2022-09-03T01:46:12;15.20;99.90
26224;DHT22;14820;48.682;8.890;2022-09-03T01:49:00;15.10;99.90
26224;DHT22;14820;48.682;8.890;2022-09-03T01:51:28;15.10;99.90
26224;DHT22;14820;48.682;8.890;2022-09-03T01:54:19;15.20;99.90
26224;DHT22;14820;48.682;8.890;2022-09-03T02:02:24;15.10;99.90
26224;DHT22;14820;48.682;8.890;2022-09-03T02:07:38;15.20;99.90
26224;DHT22;14820;48.682;8.890;2022-09-03T02:10:09;15.10;99.90
26224;DHT22;14820;48.682;8.890;2022-09-03T02:12:37;15.20;99.90
26224;DHT22;14820;48.682;8.890;2022-09-03T02:15:10;15.20;99.90
26224;DHT22;14820;48.682;8.890;2022-09-03T02:17:37;15.20;99.90
26224;DHT22;14820;48.682;8.890;2022-09-03T02:20:08;15.10;99.90
26224;DHT22;14820;48.682;8.890;2022-09-03T02:22:37;15.10;99.90
26224;DHT22;14820;48.682;8.890;2022-09-03T02:25:04;15.10;99.90
26224;DHT22;14820;48.682;8.890;2022-09-03T02:27:30;15.10;99.90
26224;DHT22;14820;48.682;8.890;2022-09-03T02:29:57;15.10;99.90
26224;DHT22;14820;48.682;8.890;2022-09-03T02:32:23;15.10;99.90
26224;DHT22;14820;48.682;8.890;2022-09-03T02:34:49;15.10;99.90
26224;DHT22;14820;48.682;8.890;2022-09-03T02:37:16;15.20;99.90
26224;DHT22;14820;48.682;8.890;2022-09-03T02:39:43;15.10;99.90
26224;DHT22;14820;48.682;8.890;2022-09-03T02:42:11;15.10;99.90
26224;DHT22;14820;48.682;8.890;2022-09-03T02:44:41;15.10;99.90
26224;DHT22;14820;48.682;8.890;2022-09-03T02:47:09;15.10;99.90
26224;DHT22;14820;48.682;8.890;2022-09-03T02:49:35;15.00;99.90
26224;DHT22;14820;48.682;8.890;2022-09-03T02:52:07;15.00;99.90
26224;DHT22;14820;48.682;8.890;2022-09-03T02:54:37;15.00;99.90
26224;DHT22;14820;48.682;8.890;2022-09-03T02:57:08;14.90;99.90
26224;DHT22;14820;48.682;8.890;2022-09-03T02:59:33;14.90;99.90
26224;DHT22;14820;48.682;8.890;2022-09-03T03:02:00;14.90;99.90
26224;DHT22;14820;48.682;8.890;2022-09-03T03:04:26;14.80;99.90
26224;DHT22;14820;48.682;8.890;2022-09-03T03:06:52;14.90;99.90
26224;DHT22;14820;48.682;8.890;2022-09-03T03:09:17;14.90;99.90
26224;DHT22;14820;48.682;8.890;2022-09-03T03:11:43;15.00;99.90
26224;DHT22;14820;48.682;8.890;2022-09-03T03:14:09;15.10;99.90
26224;DHT22;14820;48.682;8.890;2022-09-03T03:16:35;15.10;99.90
26224;DHT22;14820;48.682;8.890;2022-09-03T03:19:00;15.10;99.90
26224;DHT22;14820;48.682;8.890;2022-09-03T03:21:27;15.10;99.90
26224;DHT22;14820;48.682;8.890;2022-09-03T03:23:53;15.20;99.90
26224;DHT22;14820;48.682;8.890;2022-09-03T03:26:20;15.20;99.90
26224;DHT22;14820;48.682;8.890;2022-09-03T03:28:48;15.30;99.90
26224;DHT22;14820;48.682;8.890;2022-09-03T03:31:17;15.30;99.90
26224;DHT22;14820;48.682;8.890;2022-09-03T03:33:44;15.20;99.90
26224;DHT22;14820;48.682;8.890;2022-09-03T03:36:15;15.20;99.90
26224;DHT22;14820;48.682;8.890;2022-09-03T03:38:42;15.10;99.90
26224;DHT22;14820;48.682;8.890;2022-09-03T03:41:19;15.10;99.90
26224;DHT22;14820;48.682;8.890;2022-09-03T03:43:52;15.10;99.90
26224;DHT22;14820;48.682;8.890;2022-09-03T03:46:19;15.10;99.90
26224;DHT22;14820;48.682;8.890;2022-09-03T03:48:51;15.10;99.90
26224;DHT22;14820;48.682;8.890;2022-09-03T03:51:17;15.30;99.90
26224;DHT22;14820;48.682;8.890;2022-09-03T03:53:43;15.30;99.90
26224;DHT22;14820;48.682;8.890;2022-09-03T03:56:11;15.30;99.90
26224;DHT22;14820;48.682;8.890;2022-09-03T03:58:38;15.40;99.90
26224;DHT22;14820;48.682;8.890;2022-09-03T04:01:13;15.50;99.90
26224;DHT22;14820;48.682;8.890;2022-09-03T04:03:41;15.50;99.90
26224;DHT22;14820;48.682;8.890;2022-09-03T04:06:08;15.50;99.90
26224;DHT22;14820;48.682;8.890;2022-09-03T04:08:35;15.60;99.90
26224;DHT22;14820;48.682;8.890;2022-09-03T04:11:02;15.60;99.90
26224;DHT22;14820;48.682;8.890;2022-09-03T04:13:30;15.60;99.90
26224;DHT22;14820;48.682;8.890;2022-09-03T04:16:04;15.70;99.90
26224;DHT22;14820;48.682;8.890;2022-09-03T04:18:31;15.70;99.90
26224;DHT22;14820;48.682;8.890;2022-09-03T04:21:01;15.70;99.90
26224;DHT22;14820;48.682;8.890;2022-09-03T04:23:29;15.70;99.90
26224;DHT22;14820;48.682;8.890;2022-09-03T04:25:55;15.70;99.90
26224;DHT22;14820;48.682;8.890;2022-09-03T04:28:20;15.70;99.90
26224;DHT22;14820;48.682;8.890;2022-09-03T04:30:47;15.70;99.90
26224;DHT22;14820;48.682;8.890;2022-09-03T04:33:12;15.70;99.90
26224;DHT22;14820;48.682;8.890;2022-09-03T04:35:38;15.80;99.90
26224;DHT22;14820;48.682;8.890;2022-09-03T04:38:05;15.80;99.90
26224;DHT22;14820;48.682;8.890;2022-09-03T04:40:32;15.80;99.90
26224;DHT22;14820;48.682;8.890;2022-09-03T04:42:58;15.80;99.90
26224;DHT22;14820;48.682;8.890;2022-09-03T04:45:25;15.80;99.90
26224;DHT22;14820;48.682;8.890;2022-09-03T04:48:03;15.90;99.90
26224;DHT22;14820;48.682;8.890;2022-09-03T04:50:31;15.90;99.90
26224;DHT22;14820;48.682;8.890;2022-09-03T04:53:01;15.80;99.90
26224;DHT22;14820;48.682;8.890;2022-09-03T04:55:27;15.80;99.90
26224;DHT22;14820;48.682;8.890;2022-09-03T04:57:53;15.90;99.90
26224;DHT22;14820;48.682;8.890;2022-09-03T05:00:19;15.80;99.90
26224;DHT22;14820;48.682;8.890;2022-09-03T05:02:45;15.80;99.90
26224;DHT22;14820;48.682;8.890;2022-09-03T05:05:16;15.90;99.90
26224;DHT22;14820;48.682;8.890;2022-09-03T05:07:42;15.90;99.90
26224;DHT22;14820;48.682;8.890;2022-09-03T05:10:09;15.90;99.90
26224;DHT22;14820;48.682;8.890;2022-09-03T05:12:46;15.80;99.90
26224;DHT22;14820;48.682;8.890;2022-09-03T05:15:12;15.80;99.90
26224;DHT22;14820;48.682;8.890;2022-09-03T05:17:38;15.80;99.90
26224;DHT22;14820;48.682;8.890;2022-09-03T05:20:05;15.90;99.90
26224;DHT22;14820;48.682;8.890;2022-09-03T05:22:33;15.80;99.90
26224;DHT22;14820;48.682;8.890;2022-09-03T05:24:59;15.80;99.90
26224;DHT22;14820;48.682;8.890;2022-09-03T05:27:25;15.80;99.90
26224;DHT22;14820;48.682;8.890;2022-09-03T05:29:50;15.80;99.90
26224;DHT22;14820;48.682;8.890;2022-09-03T05:32:16;15.80;99.90
26224;DHT22;14820;48.682;8.890;2022-09-03T05:34:45;15.80;99.90
26224;DHT22;14820;48.682;8.890;2022-09-03T05:37:10;15.90;99.90
26224;DHT22;14820;48.682;8.890;2022-09-03T05:39:37;15.90;99.90
26224;DHT22;14820;48.682;8.890;2022-09-03T05:42:03;15.90;99.90
26224;DHT22;14820;48.682;8.890;2022-09-03T05:44:28;15.90;99.90
26224;DHT22;14820;48.682;8.890;2022-09-03T05:46:56;15.90;99.90
26224;DHT22;14820;48.682;8.890;2022-09-03T05:49:22;16.00;99.90
26224;DHT22;14820;48.682;8.890;2022-09-03T05:51:48;16.00;99.90
26224;DHT22;14820;48.682;8.890;2022-09-03T05:54:14;16.00;99.90
26224;DHT22;14820;48.682;8.890;2022-09-03T05:56:40;16.10;99.90
26224;DHT22;14820;48.682;8.890;2022-09-03T05:59:08;16.10;99.90
26224;DHT22;14820;48.682;8.890;2022-09-03T06:01:35;16.10;99.90
26224;DHT22;14820;48.682;8.890;2022-09-03T06:04:04;16.10;99.90
26224;DHT22;14820;48.682;8.890;2022-09-03T06:06:33;16.10;99.90
26224;DHT22;14820;48.682;8.890;2022-09-03T06:09:00;16.10;99.90
26224;DHT22;14820;48.682;8.890;2022-09-03T06:11:27;16.10;99.90
26224;DHT22;14820;48.682;8.890;2022-09-03T06:13:58;16.10;99.90
26224;DHT22;14820;48.682;8.890;2022-09-03T06:16:26;16.10;99.90
26224;DHT22;14820;48.682;8.890;2022-09-03T06:18:53;16.20;99.90
26224;DHT22;14820;48.682;8.890;2022-09-03T06:21:21;16.20;99.90
26224;DHT22;14820;48.682;8.890;2022-09-03T06:23:52;16.30;99.90
26224;DHT22;14820;48.682;8.890;2022-09-03T06:26:19;16.30;99.90
26224;DHT22;14820;48.682;8.890;2022-09-03T06:28:46;16.30;99.90
26224;DHT22;14820;48.682;8.890;2022-09-03T06:31:15;16.30;99.90
26224;DHT22;14820;48.682;8.890;2022-09-03T06:33:41;16.30;99.90
26224;DHT22;14820;48.682;8.890;2022-09-03T06:36:09;16.30;99.90
26224;DHT22;14820;48.682;8.890;2022-09-03T06:38:36;16.40;99.90
26224;DHT22;14820;48.682;8.890;2022-09-03T06:41:11;16.40;99.90
26224;DHT22;14820;48.682;8.890;2022-09-03T06:43:41;16.40;99.90
26224;DHT22;14820;48.682;8.890;2022-09-03T06:46:11;16.40;99.90
26224;DHT22;14820;48.682;8.890;2022-09-03T06:48:38;16.50;99.90
26224;DHT22;14820;48.682;8.890;2022-09-03T06:51:06;16.50;99.90
26224;DHT22;14820;48.682;8.890;2022-09-03T06:53:40;16.50;99.90
26224;DHT22;14820;48.682;8.890;2022-09-03T06:56:12;16.60;99.90
26224;DHT22;14820;48.682;8.890;2022-09-03T06:58:47;16.60;99.90
26224;DHT22;14820;48.682;8.890;2022-09-03T07:01:14;16.70;99.90
26224;DHT22;14820;48.682;8.890;2022-09-03T07:03:42;16.70;99.90
26224;DHT22;14820;48.682;8.890;2022-09-03T07:06:13;16.90;99.90
26224;DHT22;14820;48.682;8.890;2022-09-03T07:08:40;17.00;99.90
26224;DHT22;14820;48.682;8.890;2022-09-03T07:11:12;17.10;99.90
26224;DHT22;14820;48.682;8.890;2022-09-03T07:13:41;17.10;99.90
26224;DHT22;14820;48.682;8.890;2022-09-03T07:16:13;17.10;99.90
26224;DHT22;14820;48.682;8.890;2022-09-03T07:18:40;17.20;99.90
26224;DHT22;14820;48.682;8.890;2022-09-03T07:21:08;17.30;99.90
26224;DHT22;14820;48.682;8.890;2022-09-03T07:23:35;17.30;99.90
26224;DHT22;14820;48.682;8.890;2022-09-03T07:26:04;17.30;99.90
26224;DHT22;14820;48.682;8.890;2022-09-03T07:28:30;17.40;99.90
26224;DHT22;14820;48.682;8.890;2022-09-03T07:31:04;17.40;99.90
26224;DHT22;14820;48.682;8.890;2022-09-03T07:33:30;17.50;99.90
26224;DHT22;14820;48.682;8.890;2022-09-03T07:36:05;17.50;99.90
26224;DHT22;14820;48.682;8.890;2022-09-03T07:38:32;17.60;99.90
26224;DHT22;14820;48.682;8.890;2022-09-03T07:40:59;17.60;99.90
26224;DHT22;14820;48.682;8.890;2022-09-03T07:43:28;17.70;99.90
26224;DHT22;14820;48.682;8.890;2022-09-03T07:45:56;17.70;99.90
26224;DHT22;14820;48.682;8.890;2022-09-03T07:48:23;17.80;99.90
26224;DHT22;14820;48.682;8.890;2022-09-03T07:50:48;17.90;99.90
26224;DHT22;14820;48.682;8.890;2022-09-03T07:53:18;17.90;99.90
26224;DHT22;14820;48.682;8.890;2022-09-03T07:55:46;18.00;99.90
26224;DHT22;14820;48.682;8.890;2022-09-03T07:58:13;18.10;99.90
26224;DHT22;14820;48.682;8.890;2022-09-03T08:00:39;18.20;99.90
26224;DHT22;14820;48.682;8.890;2022-09-03T08:03:05;18.20;99.90
26224;DHT22;14820;48.682;8.890;2022-09-03T08:05:34;18.30;99.90
26224;DHT22;14820;48.682;8.890;2022-09-03T08:08:01;18.30;99.90
26224;DHT22;14820;48.682;8.890;2022-09-03T08:10:27;18.30;99.90
26224;DHT22;14820;48.682;8.890;2022-09-03T08:12:56;18.40;99.90
26224;DHT22;14820;48.682;8.890;2022-09-03T08:15:22;18.40;99.90
26224;DHT22;14820;48.682;8.890;2022-09-03T08:17:48;18.40;99.90
26224;DHT22;14820;48.682;8.890;2022-09-03T08:20:14;18.40;99.90
26224;DHT22;14820;48.682;8.890;2022-09-03T08:22:40;18.50;99.90
26224;DHT22;14820;48.682;8.890;2022-09-03T08:25:06;18.50;99.90
26224;DHT22;14820;48.682;8.890;2022-09-03T08:27:32;18.50;99.90
26224;DHT22;14820;48.682;8.890;2022-09-03T08:29:59;18.60;99.90
26224;DHT22;14820;48.682;8.890;2022-09-03T08:32:25;18.60;99.90
26224;DHT22;14820;48.682;8.890;2022-09-03T08:34:50;18.70;99.90
26224;DHT22;14820;48.682;8.890;2022-09-03T08:37:17;18.70;99.90
26224;DHT22;14820;48.682;8.890;2022-09-03T08:39:43;18.70;99.90
26224;DHT22;14820;48.682;8.890;2022-09-03T08:42:47;18.70;99.90
26224;DHT22;14820;48.682;8.890;2022-09-03T08:45:16;18.80;99.90
26224;DHT22;14820;48.682;8.890;2022-09-03T08:48:04;18.80;99.90
26224;DHT22;14820;48.682;8.890;2022-09-03T08:50:39;18.80;99.90
26224;DHT22;14820;48.682;8.890;2022-09-03T08:53:24;18.80;99.90
26224;DHT22;14820;48.682;8.890;2022-09-03T08:56:06;18.90;99.90
26224;DHT22;14820;48.682;8.890;2022-09-03T08:58:34;18.90;99.90
26224;DHT22;14820;48.682;8.890;2022-09-03T09:09:45;19.00;99.90
26224;DHT22;14820;48.682;8.890;2022-09-03T09:13:08;19.00;99.90
26224;DHT22;14820;48.682;8.890;2022-09-03T09:21:01;19.20;99.90
26224;DHT22;14820;48.682;8.890;2022-09-03T09:23:39;19.30;99.90
26224;DHT22;14820;48.682;8.890;2022-09-03T09:26:12;19.40;99.90
26224;DHT22;14820;48.682;8.890;2022-09-03T09:28:39;19.40;99.90
26224;DHT22;14820;48.682;8.890;2022-09-03T09:31:06;19.40;99.90
26224;DHT22;14820;48.682;8.890;2022-09-03T09:33:34;19.60;99.90
26224;DHT22;14820;48.682;8.890;2022-09-03T09:36:06;19.80;99.90
26224;DHT22;14820;48.682;8.890;2022-09-03T09:38:36;19.90;99.90
26224;DHT22;14820;48.682;8.890;2022-09-03T09:41:13;20.00;99.90
26224;DHT22;14820;48.682;8.890;2022-09-03T09:43:40;20.10;99.90
26224;DHT22;14820;48.682;8.890;2022-09-03T09:46:20;20.20;99.90
26224;DHT22;14820;48.682;8.890;2022-09-03T09:48:55;20.20;99.90
26224;DHT22;14820;48.682;8.890;2022-09-03T09:51:25;20.40;99.90
26224;DHT22;14820;48.682;8.890;2022-09-03T09:56:35;20.40;99.90
26224;DHT22;14820;48.682;8.890;2022-09-03T09:59:05;20.40;99.90
26224;DHT22;14820;48.682;8.890;2022-09-03T10:01:31;20.30;99.90
26224;DHT22;14820;48.682;8.890;2022-09-03T10:03:59;20.30;99.90
26224;DHT22;14820;48.682;8.890;2022-09-03T10:06:27;20.30;99.90
26224;DHT22;14820;48.682;8.890;2022-09-03T10:09:15;20.30;99.90
26224;DHT22;14820;48.682;8.890;2022-09-03T10:11:47;20.30;99.90
26224;DHT22;14820;48.682;8.890;2022-09-03T10:14:23;20.30;99.90
26224;DHT22;14820;48.682;8.890;2022-09-03T10:16:57;20.40;99.90
26224;DHT22;14820;48.682;8.890;2022-09-03T10:19:35;20.40;99.90
26224;DHT22;14820;48.682;8.890;2022-09-03T10:22:16;20.50;99.90
26224;DHT22;14820;48.682;8.890;2022-09-03T10:24:52;20.50;99.90
26224;DHT22;14820;48.682;8.890;2022-09-03T10:27:21;20.60;99.90
26224;DHT22;14820;48.682;8.890;2022-09-03T10:29:48;20.60;99.90
26224;DHT22;14820;48.682;8.890;2022-09-03T10:32:38;20.70;99.90
26224;DHT22;14820;48.682;8.890;2022-09-03T10:35:20;20.80;99.90
26224;DHT22;14820;48.682;8.890;2022-09-03T10:37:59;20.90;99.90
26224;DHT22;14820;48.682;8.890;2022-09-03T10:40:48;20.90;99.90
26224;DHT22;14820;48.682;8.890;2022-09-03T10:46:18;20.90;99.90
26224;DHT22;14820;48.682;8.890;2022-09-03T10:49:01;20.90;99.90
26224;DHT22;14820;48.682;8.890;2022-09-03T10:51:49;20.80;99.90
26224;DHT22;14820;48.682;8.890;2022-09-03T10:57:26;20.60;99.90
26224;DHT22;14820;48.682;8.890;2022-09-03T11:00:11;20.60;99.90
26224;DHT22;14820;48.682;8.890;2022-09-03T11:06:02;20.60;99.90
26224;DHT22;14820;48.682;8.890;2022-09-03T11:08:41;20.60;99.90
26224;DHT22;14820;48.682;8.890;2022-09-03T11:11:22;20.60;99.90
26224;DHT22;14820;48.682;8.890;2022-09-03T11:13:55;20.60;99.90
26224;DHT22;14820;48.682;8.890;2022-09-03T11:16:27;20.60;99.90
26224;DHT22;14820;48.682;8.890;2022-09-03T11:19:08;20.60;99.90
26224;DHT22;14820;48.682;8.890;2022-09-03T11:21:37;20.60;99.90
26224;DHT22;14820;48.682;8.890;2022-09-03T11:24:21;20.60;99.90
26224;DHT22;14820;48.682;8.890;2022-09-03T11:26:56;20.60;99.90
26224;DHT22;14820;48.682;8.890;2022-09-03T11:29:45;20.50;99.90
26224;DHT22;14820;48.682;8.890;2022-09-03T11:32:21;20.50;99.90
26224;DHT22;14820;48.682;8.890;2022-09-03T11:34:49;20.40;99.90
26224;DHT22;14820;48.682;8.890;2022-09-03T11:37:21;20.40;99.90
26224;DHT22;14820;48.682;8.890;2022-09-03T11:40:03;20.40;99.90
26224;DHT22;14820;48.682;8.890;2022-09-03T11:42:33;20.30;99.90
26224;DHT22;14820;48.682;8.890;2022-09-03T11:47:44;20.20;99.90
26224;DHT22;14820;48.682;8.890;2022-09-03T11:50:30;20.20;99.90
26224;DHT22;14820;48.682;8.890;2022-09-03T11:55:54;20.20;99.90
26224;DHT22;14820;48.682;8.890;2022-09-03T11:58:37;19.90;99.90
26224;DHT22;14820;48.682;8.890;2022-09-03T12:01:09;19.50;99.90
26224;DHT22;14820;48.682;8.890;2022-09-03T12:06:42;18.70;99.90
26224;DHT22;14820;48.682;8.890;2022-09-03T12:09:37;18.00;99.90
26224;DHT22;14820;48.682;8.890;2022-09-03T12:18:11;17.50;99.90
26224;DHT22;14820;48.682;8.890;2022-09-03T12:21:00;17.30;99.90
26224;DHT22;14820;48.682;8.890;2022-09-03T12:25:56;17.20;99.90
26224;DHT22;14820;48.682;8.890;2022-09-03T12:28:23;17.20;99.90
26224;DHT22;14820;48.682;8.890;2022-09-03T12:30:51;17.10;99.90
26224;DHT22;14820;48.682;8.890;2022-09-03T12:33:19;17.10;99.90
26224;DHT22;14820;48.682;8.890;2022-09-03T12:35:56;17.00;99.90
26224;DHT22;14820;48.682;8.890;2022-09-03T12:38:23;17.00;99.90
26224;DHT22;14820;48.682;8.890;2022-09-03T12:40:50;17.00;99.90
26224;DHT22;14820;48.682;8.890;2022-09-03T12:43:17;17.00;99.90
26224;DHT22;14820;48.682;8.890;2022-09-03T12:45:49;17.10;99.90
26224;DHT22;14820;48.682;8.890;2022-09-03T12:48:19;17.20;99.90
26224;DHT22;14820;48.682;8.890;2022-09-03T12:50:46;17.20;99.90
26224;DHT22;14820;48.682;8.890;2022-09-03T12:53:20;17.40;99.90
26224;DHT22;14820;48.682;8.890;2022-09-03T12:55:51;17.40;99.90
26224;DHT22;14820;48.682;8.890;2022-09-03T13:04:09;17.70;99.90
26224;DHT22;14820;48.682;8.890;2022-09-03T13:07:25;17.80;99.90
26224;DHT22;14820;48.682;8.890;2022-09-03T13:10:00;17.90;99.90
26224;DHT22;14820;48.682;8.890;2022-09-03T13:12:40;17.90;99.90
26224;DHT22;14820;48.682;8.890;2022-09-03T13:15:09;17.80;99.90
26224;DHT22;14820;48.682;8.890;2022-09-03T13:17:46;17.80;99.90
26224;DHT22;14820;48.682;8.890;2022-09-03T13:31:51;17.70;99.90
26224;DHT22;14820;48.682;8.890;2022-09-03T13:34:39;17.80;99.90
26224;DHT22;14820;48.682;8.890;2022-09-03T13:37:26;17.80;99.90
26224;DHT22;14820;48.682;8.890;2022-09-03T13:39:59;17.90;99.90
26224;DHT22;14820;48.682;8.890;2022-09-03T13:42:32;18.00;99.90
26224;DHT22;14820;48.682;8.890;2022-09-03T13:45:22;18.10;99.90
26224;DHT22;14820;48.682;8.890;2022-09-03T13:51:17;18.40;99.90
26224;DHT22;14820;48.682;8.890;2022-09-03T13:59:16;18.70;99.90
26224;DHT22;14820;48.682;8.890;2022-09-03T14:02:01;18.70;99.90
26224;DHT22;14820;48.682;8.890;2022-09-03T14:15:39;18.90;99.90
26224;DHT22;14820;48.682;8.890;2022-09-03T14:20:58;18.80;99.90
26224;DHT22;14820;48.682;8.890;2022-09-03T14:40:21;18.90;99.90
26224;DHT22;14820;48.682;8.890;2022-09-03T14:59:31;19.20;99.90
26224;DHT22;14820;48.682;8.890;2022-09-03T15:02:22;19.30;99.90
26224;DHT22;14820;48.682;8.890;2022-09-03T15:10:31;19.60;99.90
26224;DHT22;14820;48.682;8.890;2022-09-03T15:13:13;19.70;99.90
26224;DHT22;14820;48.682;8.890;2022-09-03T15:18:45;19.90;99.90
26224;DHT22;14820;48.682;8.890;2022-09-03T15:23:54;19.90;99.90
26224;DHT22;14820;48.682;8.890;2022-09-03T15:29:51;19.80;99.90
26224;DHT22;14820;48.682;8.890;2022-09-03T15:35:17;19.80;99.90
26224;DHT22;14820;48.682;8.890;2022-09-03T15:40:54;19.90;99.90
26224;DHT22;14820;48.682;8.890;2022-09-03T15:43:32;20.00;99.90
26224;DHT22;14820;48.682;8.890;2022-09-03T15:46:02;20.10;99.90
26224;DHT22;14820;48.682;8.890;2022-09-03T15:49:07;20.20;99.90
26224;DHT22;14820;48.682;8.890;2022-09-03T15:54:22;20.20;99.90
26224;DHT22;14820;48.682;8.890;2022-09-03T15:57:02;20.20;99.90
26224;DHT22;14820;48.682;8.890;2022-09-03T15:59:50;20.10;99.90
26224;DHT22;14820;48.682;8.890;2022-09-03T16:05:15;20.10;99.90
26224;DHT22;14820;48.682;8.890;2022-09-03T16:08:09;20.00;99.90
26224;DHT22;14820;48.682;8.890;2022-09-03T16:11:07;19.90;99.90
26224;DHT22;14820;48.682;8.890;2022-09-03T16:16:18;19.90;99.90
26224;DHT22;14820;48.682;8.890;2022-09-03T16:18:59;19.80;99.90
26224;DHT22;14820;48.682;8.890;2022-09-03T16:24:48;19.80;99.90
26224;DHT22;14820;48.682;8.890;2022-09-03T16:27:16;19.80;99.90
26224;DHT22;14820;48.682;8.890;2022-09-03T16:30:13;19.80;99.90
26224;DHT22;14820;48.682;8.890;2022-09-03T16:33:04;19.80;99.90
26224;DHT22;14820;48.682;8.890;2022-09-03T16:35:42;19.90;99.90
26224;DHT22;14820;48.682;8.890;2022-09-03T16:38:33;19.90;99.90
26224;DHT22;14820;48.682;8.890;2022-09-03T16:41:15;19.90;99.90
26224;DHT22;14820;48.682;8.890;2022-09-03T16:54:54;20.10;99.90
26224;DHT22;14820;48.682;8.890;2022-09-03T17:00:14;20.10;99.90
26224;DHT22;14820;48.682;8.890;2022-09-03T17:13:37;19.90;99.90
26224;DHT22;14820;48.682;8.890;2022-09-03T17:19:20;19.90;99.90
26224;DHT22;14820;48.682;8.890;2022-09-03T17:24:50;19.80;99.90
26224;DHT22;14820;48.682;8.890;2022-09-03T17:30:56;19.80;99.90
26224;DHT22;14820;48.682;8.890;2022-09-03T17:36:15;19.70;99.90
26224;DHT22;14820;48.682;8.890;2022-09-03T17:39:23;19.70;99.90
26224;DHT22;14820;48.682;8.890;2022-09-03T17:41:54;19.70;99.90
26224;DHT22;14820;48.682;8.890;2022-09-03T17:44:38;19.60;99.90
26224;DHT22;14820;48.682;8.890;2022-09-03T17:47:31;19.60;99.90
26224;DHT22;14820;48.682;8.890;2022-09-03T17:50:22;19.60;99.90
26224;DHT22;14820;48.682;8.890;2022-09-03T17:55:31;19.50;99.90
26224;DHT22;14820;48.682;8.890;2022-09-03T18:03:54;19.30;99.90
26224;DHT22;14820;48.682;8.890;2022-09-03T18:06:41;19.20;99.90
26224;DHT22;14820;48.682;8.890;2022-09-03T18:09:34;19.10;99.90
26224;DHT22;14820;48.682;8.890;2022-09-03T18:12:25;19.10;99.90
26224;DHT22;14820;48.682;8.890;2022-09-03T18:14:58;19.00;99.90
26224;DHT22;14820;48.682;8.890;2022-09-03T18:17:50;19.00;99.90
26224;DHT22;14820;48.682;8.890;2022-09-03T18:20:18;18.90;99.90
26224;DHT22;14820;48.682;8.890;2022-09-03T18:23:09;18.80;99.90
26224;DHT22;14820;48.682;8.890;2022-09-03T18:26:03;18.80;99.90
26224;DHT22;14820;48.682;8.890;2022-09-03T18:28:53;18.80;99.90
26224;DHT22;14820;48.682;8.890;2022-09-03T18:31:39;18.70;99.90
26224;DHT22;14820;48.682;8.890;2022-09-03T18:34:32;18.70;99.90
26224;DHT22;14820;48.682;8.890;2022-09-03T18:37:22;18.70;99.90
26224;DHT22;14820;48.682;8.890;2022-09-03T18:40:09;18.60;99.90
26224;DHT22;14820;48.682;8.890;2022-09-03T18:43:22;18.60;99.90
26224;DHT22;14820;48.682;8.890;2022-09-03T18:46:20;18.50;99.90
26224;DHT22;14820;48.682;8.890;2022-09-03T18:49:22;18.40;99.90
26224;DHT22;14820;48.682;8.890;2022-09-03T18:55:25;18.10;99.90
26224;DHT22;14820;48.682;8.890;2022-09-03T18:59:06;18.10;99.90
26224;DHT22;14820;48.682;8.890;2022-09-03T19:01:34;18.00;99.90
26224;DHT22;14820;48.682;8.890;2022-09-03T19:04:32;17.90;99.90
26224;DHT22;14820;48.682;8.890;2022-09-03T19:10:09;17.80;99.90
26224;DHT22;14820;48.682;8.890;2022-09-03T19:22:11;17.50;99.90
26224;DHT22;14820;48.682;8.890;2022-09-03T19:25:07;17.40;99.90
26224;DHT22;14820;48.682;8.890;2022-09-03T19:28:19;17.30;99.90
26224;DHT22;14820;48.682;8.890;2022-09-03T19:36:57;17.20;99.90
26224;DHT22;14820;48.682;8.890;2022-09-03T19:51:34;17.00;99.90
26224;DHT22;14820;48.682;8.890;2022-09-03T19:54:23;17.00;99.90
26224;DHT22;14820;48.682;8.890;2022-09-03T19:57:10;16.90;99.90
26224;DHT22;14820;48.682;8.890;2022-09-03T19:59:55;16.90;99.90
26224;DHT22;14820;48.682;8.890;2022-09-03T20:02:40;16.90;99.90
26224;DHT22;14820;48.682;8.890;2022-09-03T20:05:25;16.90;99.90
26224;DHT22;14820;48.682;8.890;2022-09-03T20:08:13;16.80;99.90
26224;DHT22;14820;48.682;8.890;2022-09-03T20:10:59;16.80;99.90
26224;DHT22;14820;48.682;8.890;2022-09-03T20:13:26;16.80;99.90
26224;DHT22;14820;48.682;8.890;2022-09-03T20:16:07;16.70;99.90
26224;DHT22;14820;48.682;8.890;2022-09-03T20:18:54;16.70;99.90
26224;DHT22;14820;48.682;8.890;2022-09-03T20:32:28;16.70;99.90
26224;DHT22;14820;48.682;8.890;2022-09-03T20:35:09;16.60;99.90
26224;DHT22;14820;48.682;8.890;2022-09-03T20:37:42;16.60;99.90
26224;DHT22;14820;48.682;8.890;2022-09-03T20:46:08;16.60;99.90
26224;DHT22;14820;48.682;8.890;2022-09-03T20:51:26;16.60;99.90
26224;DHT22;14820;48.682;8.890;2022-09-03T21:10:33;16.80;99.90
26224;DHT22;14820;48.682;8.890;2022-09-03T21:15:53;16.80;99.90
26224;DHT22;14820;48.682;8.890;2022-09-03T21:23:53;16.60;99.90
26224;DHT22;14820;48.682;8.890;2022-09-03T21:26:28;16.70;99.90
26224;DHT22;14820;48.682;8.890;2022-09-03T21:29:03;16.70;99.90